createdAt,value
2023-03-06T00:02:50.544Z,77.84
2023-03-06T00:05:11.957Z,77.84
2023-03-06T00:07:49.804Z,77.70
2023-03-06T00:10:33.133Z,77.70
2023-03-06T00:12:14.313Z,77.44
2023-03-06T00:12:51.126Z,77.44
2023-03-06T00:17:50.353Z,77.62
2023-03-06T00:22:50.692Z,77.35
2023-03-06T00:27:50.499Z,77.41
2023-03-06T00:30:29.866Z,77.41
2023-03-06T00:32:51.531Z,77.82
2023-03-06T00:37:49.762Z,77.91
2023-03-06T00:42:50.115Z,78.35
2023-03-06T00:47:49.972Z,78.30
2023-03-06T00:51:38.349Z,78.03
2023-03-06T00:52:49.985Z,78.03
2023-03-06T00:57:50.148Z,77.89
2023-03-06T01:02:50.478Z,77.92
2023-03-06T01:07:49.800Z,78.23
2023-03-06T01:12:50.021Z,77.67
2023-03-06T01:17:51.902Z,77.93
2023-03-06T01:18:38.489Z,77.93
2023-03-06T01:19:19.046Z,77.93
2023-03-06T01:22:49.834Z,77.64
2023-03-06T01:27:50.656Z,77.58
2023-03-06T01:32:49.725Z,77.34
2023-03-06T01:37:49.697Z,77.63
2023-03-06T01:42:50.062Z,77.66
2023-03-06T01:47:49.739Z,77.59
2023-03-06T01:52:52.123Z,77.58
2023-03-06T01:57:54.873Z,77.51
2023-03-06T02:02:52.859Z,77.59
2023-03-06T02:05:15.213Z,77.59
2023-03-06T02:07:50.504Z,77.67
2023-03-06T02:08:51.773Z,77.67
2023-03-06T02:12:51.015Z,77.78
2023-03-06T02:17:51.151Z,77.61
2023-03-06T02:22:56.172Z,77.41
2023-03-06T02:24:59.052Z,77.41
2023-03-06T02:27:49.663Z,77.35
2023-03-06T02:32:50.237Z,77.32
2023-03-06T02:37:50.373Z,77.45
2023-03-06T02:42:55.278Z,77.51
2023-03-06T02:47:50.017Z,77.75
2023-03-06T02:52:49.872Z,77.78
2023-03-06T02:57:49.703Z,77.71
2023-03-06T03:02:50.704Z,77.68
2023-03-06T03:07:49.590Z,77.82
2023-03-06T03:12:49.878Z,77.74
2023-03-06T03:16:13.017Z,77.74
2023-03-06T03:17:49.667Z,77.58
2023-03-06T03:22:51.837Z,77.47
2023-03-06T03:27:50.372Z,77.64
2023-03-06T03:30:22.407Z,77.64
2023-03-06T03:32:31.953Z,77.45
2023-03-06T03:32:49.887Z,77.45
2023-03-06T03:37:51.648Z,77.57
2023-03-06T03:42:49.801Z,77.54
2023-03-06T03:47:49.637Z,77.55
2023-03-06T03:52:49.548Z,77.63
2023-03-06T03:57:49.886Z,77.45
2023-03-06T04:02:48.557Z,77.35
2023-03-06T04:02:49.400Z,77.35
2023-03-06T04:04:21.570Z,77.35
2023-03-06T04:07:49.639Z,77.32
2023-03-06T04:09:53.301Z,77.32
2023-03-06T04:12:49.701Z,77.44
2023-03-06T04:17:49.640Z,77.25
2023-03-06T04:19:14.811Z,77.25
2023-03-06T04:22:49.924Z,77.15
2023-03-06T04:27:49.589Z,77.13
2023-03-06T04:32:49.725Z,77.21
2023-03-06T04:36:32.054Z,77.21
2023-03-06T04:37:49.507Z,77.41
2023-03-06T04:42:49.818Z,77.46
2023-03-06T04:47:49.797Z,77.76
2023-03-06T04:52:49.689Z,77.75
2023-03-06T04:57:49.497Z,77.70
2023-03-06T05:02:50.365Z,77.66
2023-03-06T05:07:49.633Z,77.49
2023-03-06T05:12:49.945Z,77.34
2023-03-06T05:17:49.728Z,77.47
2023-03-06T05:22:50.296Z,77.24
2023-03-06T05:27:49.485Z,77.11
2023-03-06T05:32:50.384Z,77.17
2023-03-06T05:37:49.740Z,77.10
2023-03-06T05:42:49.710Z,76.58
2023-03-06T05:47:49.872Z,76.52
2023-03-06T05:52:49.591Z,76.09
2023-03-06T05:57:50.134Z,75.59
2023-03-06T06:02:49.975Z,75.38
2023-03-06T06:07:49.466Z,74.38
2023-03-06T06:12:49.648Z,73.76
2023-03-06T06:17:50.109Z,72.95
2023-03-06T06:22:50.347Z,72.45
2023-03-06T06:27:49.385Z,71.59
2023-03-06T06:32:49.872Z,70.55
2023-03-06T06:37:49.639Z,70.00
2023-03-06T06:42:51.561Z,68.36
2023-03-06T06:47:50.009Z,66.48
2023-03-06T06:52:49.502Z,65.08
2023-03-06T06:57:49.378Z,62.54
2023-03-06T07:02:50.343Z,62.88
2023-03-06T07:07:50.508Z,60.95
2023-03-06T07:12:49.381Z,60.13
2023-03-06T07:17:50.346Z,58.68
2023-03-06T07:22:51.656Z,55.80
2023-03-06T07:27:53.616Z,54.76
2023-03-06T07:32:51.608Z,53.79
2023-03-06T07:37:50.194Z,51.37
2023-03-06T07:42:52.596Z,49.60
2023-03-06T07:47:50.090Z,49.53
2023-03-06T07:52:50.580Z,39.35
2023-03-06T07:57:49.949Z,30.60
2023-03-06T08:02:49.783Z,22.86
2023-03-06T08:07:49.342Z,26.73
2023-03-06T08:12:49.383Z,26.08
2023-03-06T08:17:49.760Z,26.89
2023-03-06T08:22:49.556Z,28.19
2023-03-06T08:27:49.566Z,32.86
2023-03-06T08:32:49.741Z,38.16
2023-03-06T08:37:49.347Z,39.18
2023-03-06T08:42:49.398Z,41.29
2023-03-06T08:47:49.909Z,42.24
2023-03-06T08:52:49.325Z,43.51
2023-03-06T08:57:49.485Z,41.67
2023-03-06T09:02:49.931Z,41.26
2023-03-06T09:07:49.428Z,41.73
2023-03-06T09:12:52.444Z,41.81
2023-03-06T09:17:50.186Z,41.31
2023-03-06T09:22:49.339Z,40.56
2023-03-06T09:28:01.772Z,40.98
2023-03-06T09:32:49.566Z,41.20
2023-03-06T09:37:49.332Z,42.25
2023-03-06T09:42:49.585Z,42.79
2023-03-06T09:47:55.086Z,43.06
2023-03-06T09:53:01.797Z,44.58
2023-03-06T09:57:54.671Z,44.74
2023-03-06T10:02:59.969Z,46.00
2023-03-06T10:07:54.245Z,46.66
2023-03-06T10:13:01.252Z,47.03
2023-03-06T10:17:49.937Z,47.69
2023-03-06T10:23:03.037Z,48.27
2023-03-06T10:27:52.980Z,49.20
2023-03-06T10:32:54.702Z,49.72
2023-03-06T10:37:49.399Z,50.80
2023-03-06T10:42:56.200Z,50.83
2023-03-06T10:47:49.890Z,52.02
2023-03-06T10:52:58.591Z,52.93
2023-03-06T10:57:49.283Z,53.65
2023-03-06T11:03:04.183Z,53.28
2023-03-06T11:07:54.699Z,53.55
2023-03-06T11:12:56.452Z,54.43
2023-03-06T11:17:53.995Z,54.36
2023-03-06T11:22:54.012Z,55.00
2023-03-06T11:27:55.155Z,55.25
2023-03-06T11:32:54.599Z,56.02
2023-03-06T11:37:53.205Z,56.45
2023-03-06T11:42:58.506Z,57.80
2023-03-06T11:47:57.076Z,57.63
2023-03-06T11:52:53.469Z,58.27
2023-03-06T11:57:57.529Z,58.68
2023-03-06T12:03:03.363Z,59.78
2023-03-06T12:07:57.057Z,60.09
2023-03-06T12:13:06.765Z,60.85
2023-03-06T12:17:58.949Z,61.83
2023-03-06T12:22:58.059Z,62.52
2023-03-06T12:27:55.238Z,62.07
2023-03-06T12:32:55.008Z,62.46
2023-03-06T12:38:02.410Z,63.19
2023-03-06T12:43:04.861Z,62.91
2023-03-06T12:47:53.384Z,63.41
2023-03-06T12:52:51.463Z,64.10
2023-03-06T12:57:49.983Z,64.04
2023-03-06T13:03:05.512Z,64.17
2023-03-06T13:07:59.816Z,64.84
2023-03-06T13:12:54.871Z,65.25
2023-03-06T13:17:49.185Z,66.56
2023-03-06T13:22:49.232Z,65.76
2023-03-06T13:28:00.227Z,66.12
2023-03-06T13:32:51.801Z,66.82
2023-03-06T13:37:49.687Z,67.34
2023-03-06T13:43:01.171Z,68.13
2023-03-06T13:48:21.174Z,68.58
2023-03-06T13:53:02.429Z,68.30
2023-03-06T13:58:02.477Z,68.99
2023-03-06T14:03:02.185Z,68.92
2023-03-06T14:08:03.166Z,69.23
2023-03-06T14:13:00.404Z,70.07
2023-03-06T14:17:55.491Z,70.26
2023-03-06T14:22:49.402Z,69.92
2023-03-06T14:27:55.003Z,70.09
2023-03-06T14:32:51.475Z,70.55
2023-03-06T14:37:52.245Z,71.07
2023-03-06T14:43:08.979Z,71.09
2023-03-06T14:47:50.666Z,71.15
2023-03-06T14:52:54.404Z,71.32
2023-03-06T14:57:54.987Z,71.13
2023-03-06T15:02:50.613Z,72.13
2023-03-06T15:07:51.952Z,72.09
2023-03-06T15:12:49.119Z,72.36
2023-03-06T15:17:49.244Z,72.50
2023-03-06T15:22:49.569Z,72.89
2023-03-06T15:27:50.881Z,73.36
2023-03-06T15:32:49.277Z,73.46
2023-03-06T15:37:49.678Z,73.66
2023-03-06T15:42:49.413Z,74.58
2023-03-06T15:47:51.266Z,74.65
2023-03-06T15:52:49.463Z,75.01
2023-03-06T15:57:51.970Z,75.45
2023-03-06T16:02:49.103Z,75.23
2023-03-06T16:07:49.955Z,75.79
2023-03-06T16:12:52.948Z,77.02
2023-03-06T16:17:48.934Z,76.05
2023-03-06T16:22:50.326Z,76.37
2023-03-06T16:27:54.443Z,77.28
2023-03-06T16:32:49.291Z,76.83
2023-03-06T16:37:49.718Z,76.59
2023-03-06T16:42:50.027Z,76.86
2023-03-06T16:47:49.691Z,77.95
2023-03-06T16:52:50.811Z,77.68
2023-03-06T16:57:49.305Z,77.59
2023-03-06T17:02:50.469Z,77.71
2023-03-06T17:07:49.481Z,77.92
2023-03-06T17:12:49.137Z,78.58
2023-03-06T17:17:50.619Z,79.03
2023-03-06T17:22:49.406Z,78.27
2023-03-06T17:27:49.119Z,78.94
2023-03-06T17:32:48.879Z,79.71
2023-03-06T17:37:49.958Z,79.18
2023-03-06T17:42:49.778Z,79.16
2023-03-06T17:47:52.473Z,78.84
2023-03-06T17:52:49.287Z,78.16
2023-03-06T17:57:50.910Z,78.37
2023-03-06T18:02:49.007Z,78.54
2023-03-06T18:07:49.170Z,78.29
2023-03-06T18:12:49.293Z,78.53
2023-03-06T18:17:49.035Z,78.43
2023-03-06T18:22:49.134Z,78.05
2023-03-06T18:27:48.813Z,78.52
2023-03-06T18:32:50.017Z,78.39
2023-03-06T18:37:49.020Z,78.60
2023-03-06T18:42:50.861Z,78.43
2023-03-06T18:47:48.849Z,78.53
2023-03-06T18:52:49.477Z,78.36
2023-03-06T18:57:48.810Z,78.42
2023-03-06T19:02:49.022Z,78.64
2023-03-06T19:07:48.980Z,78.76
2023-03-06T19:12:48.945Z,79.11
2023-03-06T19:17:48.865Z,79.27
2023-03-06T19:22:49.796Z,79.00
2023-03-06T19:27:48.887Z,79.32
2023-03-06T19:32:48.887Z,79.27
2023-03-06T19:37:49.287Z,79.34
2023-03-06T19:42:49.451Z,78.71
2023-03-06T19:47:49.568Z,79.74
2023-03-06T19:52:51.378Z,79.35
2023-03-06T19:57:48.906Z,79.88
2023-03-06T20:02:49.014Z,79.88
2023-03-06T20:07:49.661Z,80.16
2023-03-06T20:12:48.934Z,80.05
2023-03-06T20:18:09.776Z,79.84
2023-03-06T20:22:48.829Z,78.94
2023-03-06T20:27:48.821Z,79.07
2023-03-06T20:32:49.254Z,79.34
2023-03-06T20:37:48.817Z,79.99
2023-03-06T20:42:48.858Z,80.27
2023-03-06T20:47:48.915Z,80.34
2023-03-06T20:52:52.638Z,80.57
2023-03-06T20:57:49.417Z,80.77
2023-03-06T21:02:49.061Z,80.77
2023-03-06T21:07:48.712Z,80.87
2023-03-06T21:12:48.973Z,80.61
2023-03-06T21:17:48.843Z,80.49
2023-03-06T21:22:50.246Z,80.60
2023-03-06T21:27:49.112Z,80.53
2023-03-06T21:32:50.135Z,80.72
2023-03-06T21:37:48.862Z,80.56
2023-03-06T21:42:48.793Z,80.26
2023-03-06T21:47:49.079Z,80.04
2023-03-06T21:52:48.931Z,80.11
2023-03-06T21:57:49.847Z,80.08
2023-03-06T22:02:49.391Z,79.93
2023-03-06T22:07:48.678Z,79.90
2023-03-06T22:12:48.902Z,79.87
2023-03-06T22:17:48.899Z,79.84
2023-03-06T22:22:48.778Z,79.74
2023-03-06T22:27:48.723Z,79.28
2023-03-06T22:32:51.446Z,78.93
2023-03-06T22:37:48.798Z,78.67
2023-03-06T22:42:48.810Z,78.59
2023-03-06T22:47:48.927Z,78.45
2023-03-06T22:52:48.731Z,78.32
2023-03-06T22:57:48.877Z,78.13
2023-03-06T23:02:48.853Z,78.23
2023-03-06T23:07:48.588Z,77.80
2023-03-06T23:12:48.759Z,77.53
2023-03-06T23:17:50.227Z,77.32
2023-03-06T23:22:48.606Z,76.99
2023-03-06T23:27:48.661Z,76.57
2023-03-06T23:32:48.916Z,76.56
2023-03-06T23:37:48.631Z,76.72
2023-03-06T23:42:48.758Z,76.20
2023-03-06T23:47:48.635Z,75.83
2023-03-06T23:52:50.537Z,75.99
2023-03-06T23:57:48.705Z,75.69
